createdAt,value
2023-04-03T00:01:06.099Z,0.55
2023-04-03T00:03:32.942Z,0.70
2023-04-03T00:05:59.770Z,0.53
2023-04-03T00:08:26.564Z,0.61
2023-04-03T00:10:52.983Z,0.69
2023-04-03T00:13:19.456Z,0.56
2023-04-03T00:15:46.090Z,0.58
2023-04-03T00:18:12.533Z,0.54
2023-04-03T00:20:39.130Z,0.59
2023-04-03T00:23:06.039Z,0.54
2023-04-03T00:25:32.635Z,0.62
2023-04-03T00:27:59.542Z,0.64
2023-04-03T00:30:26.839Z,0.56
2023-04-03T00:32:54.358Z,0.51
2023-04-03T00:35:22.816Z,0.48
2023-04-03T00:37:52.359Z,0.40
2023-04-03T00:40:19.056Z,0.35
2023-04-03T00:42:47.709Z,0.41
2023-04-03T00:45:38.946Z,0.35
2023-04-03T00:48:07.951Z,0.30
2023-04-03T00:50:39.775Z,0.34
2023-04-03T00:53:08.368Z,0.52
2023-04-03T00:55:37.221Z,0.32
2023-04-03T00:58:04.429Z,0.20
2023-04-03T01:00:31.377Z,0.18
2023-04-03T01:02:57.938Z,0.13
2023-04-03T01:05:25.641Z,0.06
2023-04-03T01:07:53.467Z,0.18
2023-04-03T01:10:21.707Z,0.07
2023-04-03T01:12:51.133Z,0.15
2023-04-03T01:15:19.444Z,0.16
2023-04-03T01:17:49.486Z,0.04
2023-04-03T01:20:32.581Z,-0.14
2023-04-03T01:23:11.102Z,-0.15
2023-04-03T01:25:46.956Z,-0.19
2023-04-03T01:28:27.550Z,-0.21
2023-04-03T01:31:13.165Z,-0.25
2023-04-03T01:33:41.063Z,-0.17
2023-04-03T01:36:11.486Z,-0.15
2023-04-03T01:38:37.930Z,-0.14
2023-04-03T01:41:04.575Z,-0.23
2023-04-03T01:43:31.252Z,-0.25
2023-04-03T01:45:57.772Z,-0.17
2023-04-03T01:48:24.283Z,-0.12
2023-04-03T01:50:50.893Z,-0.31
2023-04-03T01:53:18.845Z,-0.32
2023-04-03T01:55:45.616Z,-0.29
2023-04-03T01:58:12.083Z,-0.49
2023-04-03T02:00:38.763Z,-0.49
2023-04-03T02:03:05.776Z,-0.48
2023-04-03T02:05:32.463Z,-0.39
2023-04-03T02:07:58.883Z,-0.38
2023-04-03T02:10:25.806Z,-0.43
2023-04-03T02:12:52.294Z,-0.58
2023-04-03T02:15:19.643Z,-0.55
2023-04-03T02:17:46.206Z,-0.64
2023-04-03T02:20:14.290Z,-0.65
2023-04-03T02:22:40.974Z,-0.63
2023-04-03T02:25:07.720Z,-0.58
2023-04-03T02:27:34.720Z,-0.68
2023-04-03T02:30:01.111Z,-0.85
2023-04-03T02:32:28.572Z,-0.77
2023-04-03T02:34:55.551Z,-0.83
2023-04-03T02:37:23.167Z,-0.86
2023-04-03T02:39:51.572Z,-0.98
2023-04-03T02:42:18.072Z,-1.01
2023-04-03T02:44:45.478Z,-0.98
2023-04-03T02:47:11.966Z,-1.03
2023-04-03T02:49:38.475Z,-1.02
2023-04-03T02:52:05.630Z,-1.06
2023-04-03T02:54:32.269Z,-0.97
2023-04-03T02:57:03.448Z,-1.12
2023-04-03T02:59:29.881Z,-1.08
2023-04-03T03:01:56.879Z,-1.09
2023-04-03T03:04:23.544Z,-1.09
2023-04-03T03:06:51.691Z,-1.21
2023-04-03T03:09:18.104Z,-1.10
2023-04-03T03:11:44.582Z,-1.10
2023-04-03T03:14:11.019Z,-1.27
2023-04-03T03:16:37.441Z,-1.13
2023-04-03T03:19:03.903Z,-1.21
2023-04-03T03:21:30.664Z,-1.19
2023-04-03T03:23:57.092Z,-1.18
2023-04-03T03:26:23.681Z,-1.21
2023-04-03T03:28:50.377Z,-1.09
2023-04-03T03:31:16.921Z,-1.10
2023-04-03T03:33:43.489Z,-1.14
2023-04-03T03:36:10.237Z,-1.12
2023-04-03T03:38:36.815Z,-1.09
2023-04-03T03:41:03.842Z,-1.14
2023-04-03T03:43:33.611Z,-1.25
2023-04-03T03:46:00.288Z,-1.21
2023-04-03T03:48:28.013Z,-1.34
2023-04-03T03:50:54.479Z,-1.35
2023-04-03T03:53:25.586Z,-1.44
2023-04-03T03:55:56.063Z,-1.46
2023-04-03T03:58:25.604Z,-1.52
2023-04-03T04:00:52.280Z,-1.47
2023-04-03T04:03:18.890Z,-1.40
2023-04-03T04:05:48.001Z,-1.28
2023-04-03T04:08:14.830Z,-1.32
2023-04-03T04:10:41.287Z,-1.38
2023-04-03T04:13:09.253Z,-1.36
2023-04-03T04:15:36.220Z,-1.33
2023-04-03T04:18:03.529Z,-1.23
2023-04-03T04:20:30.805Z,-1.32
2023-04-03T04:22:57.476Z,-1.26
2023-04-03T04:25:25.377Z,-1.29
2023-04-03T04:27:52.545Z,-1.24
2023-04-03T04:30:19.155Z,-1.21
2023-04-03T04:32:48.411Z,-1.18
2023-04-03T04:35:16.779Z,-1.13
2023-04-03T04:37:46.012Z,-1.07
2023-04-03T04:40:13.219Z,-1.07
2023-04-03T04:42:40.010Z,-1.13
2023-04-03T04:45:08.373Z,-1.06
2023-04-03T04:47:36.064Z,-1.11
2023-04-03T04:50:02.807Z,-1.15
2023-04-03T04:52:29.383Z,-1.28
2023-04-03T04:54:55.935Z,-1.35
2023-04-03T04:57:22.778Z,-1.35
2023-04-03T04:59:49.856Z,-1.32
2023-04-03T05:02:16.579Z,-1.36
2023-04-03T05:04:45.082Z,-1.33
2023-04-03T05:07:17.348Z,-1.28
2023-04-03T05:09:44.325Z,-1.30
2023-04-03T05:12:12.549Z,-1.40
2023-04-03T05:14:45.363Z,-1.46
2023-04-03T05:17:11.951Z,-1.44
2023-04-03T05:19:42.191Z,-1.43
2023-04-03T05:22:10.351Z,-1.46
2023-04-03T05:24:36.822Z,-1.48
2023-04-03T05:27:04.555Z,-1.46
2023-04-03T05:29:33.863Z,-1.46
2023-04-03T05:32:02.207Z,-1.49
2023-04-03T05:34:29.215Z,-1.42
2023-04-03T05:36:56.695Z,-1.42
2023-04-03T05:39:23.897Z,-1.41
2023-04-03T05:41:51.163Z,-1.38
2023-04-03T05:44:18.119Z,-1.28
2023-04-03T05:46:46.460Z,-1.28
2023-04-03T05:49:12.992Z,-1.30
2023-04-03T05:51:41.366Z,-1.31
2023-04-03T05:54:24.513Z,-1.34
2023-04-03T05:56:56.069Z,-1.40
2023-04-03T05:59:23.676Z,-1.32
2023-04-03T06:01:53.169Z,-1.42
2023-04-03T06:04:20.899Z,-1.34
2023-04-03T06:06:56.015Z,-1.27
2023-04-03T06:09:25.714Z,-1.18
2023-04-03T06:11:52.914Z,-1.21
2023-04-03T06:14:21.058Z,-1.13
2023-04-03T06:16:48.188Z,-1.06
2023-04-03T06:19:14.644Z,-1.17
2023-04-03T06:21:48.125Z,-1.05
2023-04-03T06:24:17.403Z,-0.97
2023-04-03T06:26:44.431Z,-1.02
2023-04-03T06:29:11.113Z,-0.89
2023-04-03T06:31:37.838Z,-0.71
2023-04-03T06:34:07.250Z,-0.71
2023-04-03T06:36:35.642Z,-0.65
2023-04-03T06:39:02.690Z,-0.71
2023-04-03T06:41:29.253Z,-0.75
2023-04-03T06:43:57.404Z,-0.59
2023-04-03T06:46:24.685Z,-0.57
2023-04-03T06:48:51.780Z,-0.52
2023-04-03T06:51:24.336Z,-0.42
2023-04-03T06:53:53.036Z,-0.39
2023-04-03T06:56:19.850Z,-0.25
2023-04-03T06:58:47.124Z,-0.28
2023-04-03T07:01:16.148Z,-0.20
2023-04-03T07:03:43.242Z,-0.12
2023-04-03T07:06:12.920Z,0.02
2023-04-03T07:08:40.393Z,0.16
2023-04-03T07:11:07.559Z,0.24
2023-04-03T07:13:34.533Z,0.23
2023-04-03T07:16:02.561Z,0.32
2023-04-03T07:18:29.085Z,0.40
2023-04-03T07:20:55.841Z,0.39
2023-04-03T07:23:24.620Z,0.49
2023-04-03T07:25:52.348Z,0.69
2023-04-03T07:28:20.283Z,0.84
2023-04-03T07:30:48.960Z,0.98
2023-04-03T07:33:17.238Z,1.05
2023-04-03T07:35:44.205Z,1.02
2023-04-03T07:38:11.453Z,1.08
2023-04-03T07:40:38.492Z,1.29
2023-04-03T07:43:06.326Z,1.33
2023-04-03T07:45:36.142Z,1.42
2023-04-03T07:48:03.558Z,1.48
2023-04-03T07:50:31.410Z,1.71
2023-04-03T07:52:58.686Z,1.71
2023-04-03T07:55:26.157Z,1.67
2023-04-03T07:57:52.785Z,1.82
2023-04-03T08:00:20.629Z,1.74
2023-04-03T08:02:52.328Z,1.89
2023-04-03T08:05:20.084Z,2.00
2023-04-03T08:07:47.533Z,2.07
2023-04-03T08:10:15.250Z,2.22
2023-04-03T08:12:42.332Z,2.34
2023-04-03T08:15:09.949Z,2.43
2023-04-03T08:17:36.868Z,2.56
2023-04-03T08:20:07.539Z,2.54
2023-04-03T08:22:34.990Z,2.62
2023-04-03T08:25:04.840Z,2.72
2023-04-03T08:27:32.813Z,2.85
2023-04-03T08:29:59.517Z,2.85
2023-04-03T08:32:26.867Z,2.89
2023-04-03T08:34:53.306Z,2.93
2023-04-03T08:37:20.166Z,3.09
2023-04-03T08:39:46.705Z,3.22
2023-04-03T08:42:36.507Z,3.36
2023-04-03T08:45:10.476Z,3.56
2023-04-03T08:47:54.584Z,3.62
2023-04-03T08:50:31.206Z,3.59
2023-04-03T08:52:59.953Z,3.69
2023-04-03T08:55:40.340Z,3.66
2023-04-03T08:58:17.673Z,3.70
2023-04-03T09:00:51.907Z,3.78
2023-04-03T09:03:22.981Z,3.77
2023-04-03T09:06:08.158Z,3.76
2023-04-03T09:08:41.589Z,3.84
2023-04-03T09:11:18.234Z,3.96
2023-04-03T09:14:07.970Z,4.14
2023-04-03T09:16:54.131Z,4.11
2023-04-03T09:19:33.864Z,4.08
2023-04-03T09:22:25.937Z,4.25
2023-04-03T09:25:19.994Z,4.42
2023-04-03T09:27:46.881Z,4.60
2023-04-03T09:30:18.915Z,4.89
2023-04-03T09:32:48.248Z,5.03
2023-04-03T09:35:20.543Z,5.16
2023-04-03T09:37:52.887Z,5.48
2023-04-03T09:40:36.455Z,5.69
2023-04-03T09:43:20.889Z,6.00
2023-04-03T09:45:49.063Z,5.87
2023-04-03T09:48:16.708Z,6.11
2023-04-03T09:51:00.306Z,6.33
2023-04-03T09:53:27.853Z,6.35
2023-04-03T09:55:54.466Z,6.43
2023-04-03T09:58:42.763Z,6.54
2023-04-03T10:01:30.602Z,6.62
2023-04-03T10:04:23.710Z,6.76
2023-04-03T10:06:56.052Z,6.70
2023-04-03T10:09:29.143Z,6.67
2023-04-03T10:12:06.094Z,6.64
2023-04-03T10:14:35.826Z,6.60
2023-04-03T10:17:22.329Z,6.49
2023-04-03T10:19:54.793Z,6.55
2023-04-03T10:22:51.567Z,6.72
2023-04-03T10:25:33.101Z,6.62
2023-04-03T10:28:13.476Z,6.93
2023-04-03T10:30:49.608Z,7.12
2023-04-03T10:33:37.123Z,7.47
2023-04-03T10:36:45.814Z,7.82
2023-04-03T10:39:51.633Z,8.35
2023-04-03T10:42:36.242Z,8.11
2023-04-03T10:45:20.423Z,7.97
2023-04-03T10:48:11.554Z,7.82
2023-04-03T10:50:56.912Z,7.93
2023-04-03T10:53:46.258Z,8.10
2023-04-03T10:56:30.957Z,7.82
2023-04-03T10:59:08.795Z,7.63
2023-04-03T11:01:41.428Z,7.64
2023-04-03T11:04:10.325Z,7.57
2023-04-03T11:06:42.122Z,7.51
2023-04-03T11:09:25.756Z,7.35
2023-04-03T11:11:57.650Z,7.50
2023-04-03T11:14:29.111Z,7.63
2023-04-03T11:17:22.920Z,7.54
2023-04-03T11:19:58.152Z,6.97
2023-04-03T11:22:39.447Z,7.03
2023-04-03T11:25:25.060Z,7.03
2023-04-03T11:28:04.968Z,6.73
2023-04-03T11:30:57.590Z,6.54
2023-04-03T11:33:33.779Z,6.43
2023-04-03T11:36:24.895Z,6.58
2023-04-03T11:38:58.244Z,6.62
2023-04-03T11:41:28.215Z,6.63
2023-04-03T11:44:26.993Z,6.80
2023-04-03T11:46:58.235Z,7.02
2023-04-03T11:49:54.044Z,7.00
2023-04-03T11:52:40.970Z,6.91
2023-04-03T11:55:23.960Z,6.51
2023-04-03T11:57:59.467Z,6.50
2023-04-03T12:00:44.959Z,6.50
2023-04-03T12:03:35.286Z,6.57
2023-04-03T12:06:08.101Z,6.57
2023-04-03T12:08:34.560Z,6.36
2023-04-03T12:11:10.573Z,6.44
2023-04-03T12:14:04.815Z,6.71
2023-04-03T12:16:42.894Z,6.82
2023-04-03T12:19:15.617Z,6.82
2023-04-03T12:21:45.925Z,6.98
2023-04-03T12:24:18.237Z,6.97
2023-04-03T12:27:16.594Z,6.84
2023-04-03T12:30:04.772Z,6.80
2023-04-03T12:32:40.576Z,6.81
2023-04-03T12:35:19.474Z,6.72
2023-04-03T12:38:21.303Z,6.78
2023-04-03T12:41:06.554Z,7.59
2023-04-03T12:44:07.645Z,7.58
2023-04-03T12:46:43.414Z,7.70
2023-04-03T12:49:32.360Z,7.37
2023-04-03T12:51:59.693Z,7.09
2023-04-03T12:54:42.942Z,7.03
2023-04-03T12:57:30.247Z,7.18
2023-04-03T12:59:57.323Z,7.63
2023-04-03T13:02:27.293Z,7.95
2023-04-03T13:04:58.764Z,8.16
2023-04-03T13:07:29.566Z,8.57
2023-04-03T13:09:58.089Z,8.37
2023-04-03T13:12:24.730Z,8.19
2023-04-03T13:15:01.363Z,8.07
2023-04-03T13:17:29.107Z,7.82
2023-04-03T13:19:55.589Z,7.63
2023-04-03T13:22:39.976Z,7.59
2023-04-03T13:25:10.551Z,7.86
2023-04-03T13:27:40.441Z,8.21
2023-04-03T13:30:20.672Z,8.51
2023-04-03T13:32:47.407Z,8.88
2023-04-03T13:35:38.254Z,9.34
2023-04-03T13:38:27.159Z,9.09
2023-04-03T13:40:56.889Z,8.49
2023-04-03T13:43:29.975Z,8.41
2023-04-03T13:46:06.001Z,8.09
2023-04-03T13:48:39.334Z,7.73
2023-04-03T13:51:11.689Z,7.47
2023-04-03T13:54:00.737Z,7.20
2023-04-03T13:56:38.542Z,7.06
2023-04-03T13:59:05.216Z,7.13
2023-04-03T14:01:43.904Z,7.30
2023-04-03T14:04:15.984Z,7.50
2023-04-03T14:06:42.556Z,7.63
2023-04-03T14:09:09.150Z,7.79
2023-04-03T14:11:36.920Z,8.11
2023-04-03T14:14:12.393Z,8.36
2023-04-03T14:16:42.465Z,8.47
2023-04-03T14:19:18.790Z,8.79
2023-04-03T14:21:45.234Z,9.00
2023-04-03T14:24:12.470Z,8.62
2023-04-03T14:26:38.962Z,8.33
2023-04-03T14:29:05.626Z,8.16
2023-04-03T14:31:32.089Z,7.98
2023-04-03T14:33:58.525Z,7.69
2023-04-03T14:36:28.219Z,7.71
2023-04-03T14:38:55.808Z,8.08
2023-04-03T14:41:25.418Z,8.30
2023-04-03T14:43:52.599Z,8.65
2023-04-03T14:46:42.998Z,8.90
2023-04-03T14:49:26.296Z,8.54
2023-04-03T14:51:53.703Z,8.15
2023-04-03T14:54:28.309Z,7.73
2023-04-03T14:56:57.468Z,7.64
2023-04-03T14:59:24.324Z,7.45
2023-04-03T15:01:51.001Z,7.39
2023-04-03T15:04:20.995Z,7.73
2023-04-03T15:06:49.101Z,8.08
2023-04-03T15:09:27.093Z,8.18
2023-04-03T15:11:55.960Z,7.95
2023-04-03T15:14:35.788Z,7.50
2023-04-03T15:17:08.026Z,7.42
2023-04-03T15:19:39.751Z,7.57
2023-04-03T15:22:06.522Z,7.40
2023-04-03T15:24:33.356Z,7.42
2023-04-03T15:27:02.092Z,7.55
2023-04-03T15:29:28.687Z,7.76
2023-04-03T15:31:55.299Z,7.86
2023-04-03T15:34:22.828Z,8.05
2023-04-03T15:36:51.027Z,7.93
2023-04-03T15:39:17.599Z,7.63
2023-04-03T15:41:46.188Z,7.45
2023-04-03T15:44:13.264Z,7.24
2023-04-03T15:46:39.928Z,7.14
2023-04-03T15:49:06.800Z,7.12
2023-04-03T15:51:33.432Z,7.13
2023-04-03T15:54:01.148Z,7.31
2023-04-03T15:56:27.602Z,7.54
2023-04-03T15:58:54.026Z,7.78
2023-04-03T16:01:20.649Z,7.92
2023-04-03T16:03:47.911Z,8.05
2023-04-03T16:06:16.313Z,8.12
2023-04-03T16:08:43.517Z,7.94
2023-04-03T16:11:10.618Z,7.98
2023-04-03T16:13:37.262Z,7.82
2023-04-03T16:16:05.166Z,7.66
2023-04-03T16:18:32.504Z,7.64
2023-04-03T16:20:59.048Z,7.45
2023-04-03T16:23:26.083Z,7.10
2023-04-03T16:25:52.492Z,6.88
2023-04-03T16:28:19.052Z,6.74
2023-04-03T16:30:47.005Z,6.65
2023-04-03T16:33:14.144Z,6.52
2023-04-03T16:35:42.866Z,6.46
2023-04-03T16:38:09.633Z,6.47
2023-04-03T16:40:36.371Z,6.36
2023-04-03T16:43:03.512Z,6.36
2023-04-03T16:45:29.985Z,6.39
2023-04-03T16:47:56.441Z,6.45
2023-04-03T16:50:23.061Z,6.56
2023-04-03T16:52:49.583Z,6.67
2023-04-03T16:55:16.088Z,6.90
2023-04-03T16:57:42.612Z,6.98
2023-04-03T17:00:09.741Z,6.95
2023-04-03T17:02:36.374Z,6.79
2023-04-03T17:05:03.102Z,6.74
2023-04-03T17:07:29.680Z,6.70
2023-04-03T17:09:56.087Z,6.58
2023-04-03T17:12:23.336Z,6.53
2023-04-03T17:14:49.941Z,6.45
2023-04-03T17:17:19.390Z,6.26
2023-04-03T17:19:45.903Z,6.26
2023-04-03T17:22:12.558Z,6.28
2023-04-03T17:24:39.145Z,6.14
2023-04-03T17:27:05.749Z,6.16
2023-04-03T17:29:32.546Z,6.15
2023-04-03T17:31:59.002Z,6.03
2023-04-03T17:34:25.453Z,5.85
2023-04-03T17:36:51.877Z,5.72
2023-04-03T17:39:18.404Z,5.83
2023-04-03T17:41:46.028Z,5.54
2023-04-03T17:44:13.399Z,5.57
2023-04-03T17:46:39.944Z,5.46
2023-04-03T17:49:06.685Z,5.39
2023-04-03T17:51:34.486Z,5.40
2023-04-03T17:54:01.270Z,5.34
2023-04-03T17:56:28.372Z,5.25
2023-04-03T17:58:56.673Z,5.13
2023-04-03T18:01:26.710Z,5.09
2023-04-03T18:03:57.211Z,5.01
2023-04-03T18:06:38.525Z,4.93
2023-04-03T18:09:11.212Z,4.89
2023-04-03T18:11:38.374Z,4.81
2023-04-03T18:14:07.641Z,4.75
2023-04-03T18:16:35.170Z,4.70
2023-04-03T18:19:21.316Z,4.61
2023-04-03T18:21:48.558Z,4.54
2023-04-03T18:24:18.239Z,4.44
2023-04-03T18:26:50.962Z,4.30
2023-04-03T18:29:18.194Z,4.39
2023-04-03T18:31:50.442Z,4.32
2023-04-03T18:34:16.974Z,4.25
2023-04-03T18:36:43.745Z,4.07
2023-04-03T18:39:10.199Z,4.08
2023-04-03T18:41:37.359Z,4.13
2023-04-03T18:44:06.873Z,3.99
2023-04-03T18:46:34.365Z,3.93
2023-04-03T18:49:01.101Z,3.86
2023-04-03T18:51:27.676Z,3.96
2023-04-03T18:53:54.126Z,3.85
2023-04-03T18:56:22.125Z,3.82
2023-04-03T18:58:48.576Z,3.82
2023-04-03T19:01:15.639Z,3.69
2023-04-03T19:03:42.496Z,3.73
2023-04-03T19:06:09.018Z,3.69
2023-04-03T19:08:35.737Z,3.61
2023-04-03T19:11:02.811Z,3.63
2023-04-03T19:13:29.764Z,3.57
2023-04-03T19:15:59.009Z,3.42
2023-04-03T19:18:27.300Z,3.45
2023-04-03T19:20:58.663Z,3.44
2023-04-03T19:23:25.386Z,3.29
2023-04-03T19:26:06.685Z,3.25
2023-04-03T19:28:34.413Z,3.27
2023-04-03T19:31:01.556Z,3.28
2023-04-03T19:33:29.376Z,3.28
2023-04-03T19:35:55.833Z,3.27
2023-04-03T19:38:22.590Z,3.19
2023-04-03T19:40:49.236Z,3.08
2023-04-03T19:43:16.830Z,2.98
2023-04-03T19:45:45.896Z,2.95
2023-04-03T19:48:12.653Z,2.84
2023-04-03T19:50:39.856Z,2.92
2023-04-03T19:53:06.625Z,2.91
2023-04-03T19:55:35.124Z,2.76
2023-04-03T19:58:04.282Z,2.77
2023-04-03T20:00:31.695Z,2.70
2023-04-03T20:02:58.685Z,2.58
2023-04-03T20:05:26.328Z,2.53
2023-04-03T20:07:52.803Z,2.58
2023-04-03T20:10:19.553Z,2.50
2023-04-03T20:12:46.052Z,2.47
2023-04-03T20:15:13.345Z,2.41
2023-04-03T20:17:41.301Z,2.30
2023-04-03T20:20:08.555Z,2.32
2023-04-03T20:22:37.475Z,2.21
2023-04-03T20:25:07.505Z,2.09
2023-04-03T20:27:34.909Z,2.07
2023-04-03T20:30:04.070Z,2.10
2023-04-03T20:32:31.412Z,1.97
2023-04-03T20:35:04.465Z,1.99
2023-04-03T20:37:31.489Z,1.93
2023-04-03T20:39:58.349Z,1.97
2023-04-03T20:42:25.148Z,1.90
2023-04-03T20:44:52.383Z,1.87
2023-04-03T20:47:18.977Z,1.92
2023-04-03T20:49:46.194Z,1.87
2023-04-03T20:52:12.581Z,1.89
2023-04-03T20:54:40.107Z,1.78
2023-04-03T20:57:07.016Z,1.70
2023-04-03T20:59:34.263Z,1.68
2023-04-03T21:02:00.871Z,1.60
2023-04-03T21:04:45.189Z,1.63
2023-04-03T21:07:52.202Z,1.53
2023-04-03T21:10:56.428Z,1.44
2023-04-03T21:14:01.137Z,1.44
2023-04-03T21:16:28.164Z,1.40
2023-04-03T21:19:00.645Z,1.32
2023-04-03T21:21:28.766Z,1.25
2023-04-03T21:23:55.788Z,1.27
2023-04-03T21:26:25.501Z,1.26
2023-04-03T21:28:52.545Z,1.20
2023-04-03T21:31:22.287Z,1.24
2023-04-03T21:33:49.464Z,1.13
2023-04-03T21:36:16.208Z,1.08
2023-04-03T21:38:44.904Z,1.16
2023-04-03T21:41:11.544Z,1.11
2023-04-03T21:43:37.990Z,1.05
2023-04-03T21:46:05.757Z,1.07
2023-04-03T21:48:33.036Z,1.02
2023-04-03T21:51:04.071Z,0.99
2023-04-03T21:53:31.637Z,0.96
2023-04-03T21:55:58.337Z,1.05
2023-04-03T21:58:32.371Z,0.97
2023-04-03T22:01:11.827Z,1.04
2023-04-03T22:03:39.115Z,0.94
2023-04-03T22:06:06.008Z,0.92
2023-04-03T22:08:32.544Z,0.87
2023-04-03T22:11:13.379Z,0.77
2023-04-03T22:13:41.411Z,0.77
2023-04-03T22:16:08.707Z,0.81
2023-04-03T22:18:35.555Z,0.69
2023-04-03T22:21:02.741Z,0.73
2023-04-03T22:23:29.470Z,0.64
2023-04-03T22:26:01.317Z,0.59
2023-04-03T22:28:28.797Z,0.54
2023-04-03T22:30:56.199Z,0.59
2023-04-03T22:33:23.149Z,0.61
2023-04-03T22:35:50.463Z,0.58
2023-04-03T22:38:17.760Z,0.46
2023-04-03T22:40:47.345Z,0.46
2023-04-03T22:43:13.871Z,0.49
2023-04-03T22:45:47.908Z,0.61
2023-04-03T22:48:15.130Z,0.48
2023-04-03T22:50:42.069Z,0.57
2023-04-03T22:53:09.182Z,0.43
2023-04-03T22:55:36.570Z,0.48
2023-04-03T22:58:03.535Z,0.39
2023-04-03T23:00:30.469Z,0.40
2023-04-03T23:02:58.937Z,0.33
2023-04-03T23:05:25.594Z,0.29
2023-04-03T23:07:52.436Z,0.38
2023-04-03T23:10:19.417Z,0.26
2023-04-03T23:12:45.921Z,0.28
2023-04-03T23:15:14.434Z,0.12
2023-04-03T23:17:41.158Z,0.16
2023-04-03T23:20:08.010Z,0.10
2023-04-03T23:22:34.628Z,0.17
2023-04-03T23:25:01.561Z,0.23
2023-04-03T23:27:28.420Z,0.24
2023-04-03T23:29:55.314Z,0.29
2023-04-03T23:32:21.736Z,0.30
2023-04-03T23:34:48.147Z,0.22
2023-04-03T23:37:14.556Z,0.23
2023-04-03T23:39:41.434Z,0.26
2023-04-03T23:42:10.888Z,0.26
2023-04-03T23:44:37.693Z,0.24
2023-04-03T23:47:04.567Z,0.24
2023-04-03T23:49:32.078Z,0.20
2023-04-03T23:51:58.565Z,0.22
2023-04-03T23:54:25.215Z,0.17
2023-04-03T23:56:51.938Z,0.16
2023-04-03T23:59:18.445Z,0.09
